Главная страница
METAR-TAF:

METAR-TAF

Аэропорты :

Киттиля, Финляндия

широта: 67-42N, долгота: 024-51E, высота над уровнем моря: 196 м

Текущие метеонаблюдения

Эта сводка был подготовлена 29 минут назад, в 14:50 UTC
Ветер 9 Узел от северный, изменяющийся между северо-западный и северный
Температура 16°C
Влажность 51%
Давление 1012 hPa
Видимость 10 км и более
Сплошная облачность на высоте 4600 фута

METAR: EFKT 221450Z AUTO 35009KT 310V010 9999 OVC046 16/06 Q1012

Время: 18:19 (15:19 UTC)

Прогноз

Эта сводка был подготовлена 6 часа и 52 минут назад, в 08:27 UTC
Прогноз действительный с 22-го 09 UTC до 22-го 12 UTC
Ветер 10 Узел от северный
Видимость 10 км и более
Рассеянная облачность на высоте 3500 фута

TAF: EFKT 220827Z 2209/2212 35010KT 9999 BKN035

Метеонаблюдения и прогнозы для более 4000 аэропортов (сводки METAR и TAF).

Имеющиеся станции представлены на карте желтыми и красными точками.

Чтобы увидеть название станции, наведите на нее мышь.

Затем щелкните, чтобы увидеть метеонаблюдения и метеопрогнозы.

Управление картой: чтобы увеличить масштаб, щелкните зеленые кнопки с черным крестиком; чтобы уменьшить масштаб, щелкните зеленую кнопку с тире; для просмотра соседних карт щелкайте зеленые стрелки.


METAR-TAF: